createdAt,value
2023-07-18T00:05:02.105Z,14.87
2023-07-18T00:10:05.249Z,14.99
2023-07-18T00:15:10.783Z,15.09
2023-07-18T00:20:15.130Z,15.14
2023-07-18T00:25:20.765Z,15.17
2023-07-18T00:30:23.810Z,15.13
2023-07-18T00:35:28.270Z,15.00
2023-07-18T00:40:31.090Z,14.90
2023-07-18T00:45:33.816Z,14.80
2023-07-18T00:50:37.752Z,14.78
2023-07-18T00:55:41.447Z,14.86
2023-07-18T01:00:44.203Z,14.93
2023-07-18T01:05:46.888Z,14.91
2023-07-18T01:10:50.011Z,14.85
2023-07-18T01:15:53.142Z,14.79
2023-07-18T01:20:56.458Z,14.85
2023-07-18T01:25:59.205Z,14.91
2023-07-18T01:31:01.943Z,15.01
2023-07-18T01:36:04.898Z,15.04
2023-07-18T01:41:08.648Z,14.95
2023-07-18T01:46:11.397Z,14.82
2023-07-18T01:51:14.781Z,14.82
2023-07-18T01:56:17.533Z,14.75
2023-07-18T02:01:20.514Z,14.73
2023-07-18T02:06:26.245Z,14.81
2023-07-18T02:11:29.015Z,14.85
2023-07-18T02:16:32.004Z,14.76
2023-07-18T02:21:34.749Z,14.63
2023-07-18T02:26:37.701Z,14.60
2023-07-18T02:31:40.956Z,14.65
2023-07-18T02:36:43.752Z,14.65
2023-07-18T02:41:46.427Z,14.55
2023-07-18T02:46:49.265Z,14.42
2023-07-18T02:51:51.926Z,14.26
2023-07-18T02:56:54.682Z,14.14
2023-07-18T03:02:00.326Z,14.05
2023-07-18T03:07:04.366Z,14.04
2023-07-18T03:12:07.797Z,14.06
2023-07-18T03:17:12.565Z,14.08
2023-07-18T03:22:15.961Z,14.18
2023-07-18T03:27:19.452Z,14.28
2023-07-18T03:32:22.189Z,14.42
2023-07-18T03:37:26.949Z,14.47
2023-07-18T03:42:29.659Z,14.53
2023-07-18T03:47:32.724Z,14.53
2023-07-18T03:52:35.552Z,14.49
2023-07-18T03:57:38.848Z,14.47
2023-07-18T04:02:47.189Z,14.55
2023-07-18T04:07:50.516Z,14.59
2023-07-18T04:12:53.335Z,14.54
2023-07-18T04:17:56.077Z,14.50
2023-07-18T04:22:59.233Z,14.51
2023-07-18T04:28:02.442Z,14.56
2023-07-18T04:33:05.119Z,14.59
2023-07-18T04:38:07.908Z,14.61
2023-07-18T04:43:11.097Z,14.65
2023-07-18T04:48:18.321Z,14.76
2023-07-18T04:53:21.058Z,14.87
2023-07-18T04:58:28.452Z,15.01
2023-07-18T05:03:41.007Z,15.08
2023-07-18T05:08:55.221Z,15.21
2023-07-18T05:13:58.100Z,15.25
2023-07-18T05:19:00.742Z,15.40
2023-07-18T05:24:03.669Z,15.53
2023-07-18T05:29:06.385Z,15.70
2023-07-18T05:34:09.077Z,15.95
2023-07-18T05:39:12.500Z,16.14
2023-07-18T05:44:17.776Z,16.29
2023-07-18T05:49:20.577Z,16.28
2023-07-18T05:54:23.970Z,16.27
2023-07-18T05:59:31.793Z,16.31
2023-07-18T06:04:36.425Z,16.59
2023-07-18T06:09:39.877Z,16.69
2023-07-18T06:14:42.636Z,16.78
2023-07-18T06:19:47.683Z,16.90
2023-07-18T06:24:50.547Z,17.09
2023-07-18T06:29:53.554Z,17.16
2023-07-18T06:34:58.591Z,17.26
2023-07-18T06:40:04.104Z,17.35
2023-07-18T06:45:08.168Z,17.78
2023-07-18T06:50:12.555Z,17.92
2023-07-18T06:55:15.277Z,17.98
2023-07-18T07:00:21.373Z,18.16
2023-07-18T07:05:24.154Z,18.25
2023-07-18T07:10:27.175Z,18.29
2023-07-18T07:15:29.897Z,18.53
2023-07-18T07:20:34.082Z,18.64
2023-07-18T07:25:36.822Z,18.71
2023-07-18T07:30:39.754Z,18.86
2023-07-18T07:35:44.612Z,18.94
2023-07-18T07:40:47.341Z,18.86
2023-07-18T07:45:50.132Z,19.00
2023-07-18T07:50:52.849Z,19.13
2023-07-18T07:55:55.598Z,19.04
2023-07-18T08:00:58.321Z,19.38
2023-07-18T08:06:01.823Z,19.65
2023-07-18T08:11:04.980Z,19.66
2023-07-18T08:16:07.792Z,19.85
2023-07-18T08:21:10.535Z,20.21
2023-07-18T08:26:13.806Z,20.07
2023-07-18T08:31:16.585Z,20.27
2023-07-18T08:36:19.396Z,20.21
2023-07-18T08:41:23.018Z,20.35
2023-07-18T08:46:27.197Z,20.41
2023-07-18T08:51:31.854Z,20.66
2023-07-18T08:56:34.660Z,20.82
2023-07-18T09:01:52.561Z,20.47
2023-07-18T09:07:04.080Z,20.00
2023-07-18T09:12:07.543Z,19.96
2023-07-18T09:17:10.512Z,20.15
2023-07-18T09:22:15.211Z,20.09
2023-07-18T09:27:21.184Z,20.41
2023-07-18T09:32:24.886Z,20.60
2023-07-18T09:37:28.604Z,20.52
2023-07-18T09:42:33.493Z,20.74
2023-07-18T09:47:37.213Z,20.97
2023-07-18T09:52:51.551Z,21.03
2023-07-18T09:57:56.395Z,21.25
2023-07-18T10:02:59.780Z,21.65
2023-07-18T10:08:07.805Z,21.87
2023-07-18T10:13:10.637Z,22.07
2023-07-18T10:18:18.348Z,22.18
2023-07-18T10:23:40.291Z,21.93
2023-07-18T10:28:47.748Z,21.92
2023-07-18T10:34:07.261Z,22.42
2023-07-18T10:39:15.546Z,22.81
2023-07-18T10:44:18.292Z,23.10
2023-07-18T10:49:26.864Z,23.00
2023-07-18T10:54:29.628Z,22.98
2023-07-18T10:59:32.409Z,23.29
2023-07-18T11:04:35.146Z,23.41
2023-07-18T11:09:38.263Z,23.23
2023-07-18T11:14:41.732Z,23.19
2023-07-18T11:19:45.092Z,23.17
2023-07-18T11:24:47.956Z,22.97
2023-07-18T11:30:01.822Z,22.72
2023-07-18T11:35:07.786Z,23.15
2023-07-18T11:40:11.723Z,23.47
2023-07-18T11:45:24.646Z,23.91
2023-07-18T11:50:30.285Z,24.51
2023-07-18T11:55:33.684Z,24.29
2023-07-18T12:00:37.774Z,24.03
2023-07-18T12:05:40.530Z,24.09
2023-07-18T12:10:50.213Z,24.19
2023-07-18T12:15:59.427Z,23.91
2023-07-18T12:21:02.316Z,23.56
2023-07-18T12:26:05.153Z,23.17
2023-07-18T12:31:09.659Z,22.63
2023-07-18T12:36:14.119Z,22.30
2023-07-18T12:41:18.713Z,22.09
2023-07-18T12:46:27.861Z,22.17
2023-07-18T12:51:30.735Z,22.20
2023-07-18T12:56:34.926Z,22.13
2023-07-18T13:01:39.028Z,21.94
2023-07-18T13:06:41.856Z,22.05
2023-07-18T13:11:45.739Z,22.49
2023-07-18T13:16:48.724Z,22.69
2023-07-18T13:21:52.008Z,22.99
2023-07-18T13:26:54.872Z,23.06
2023-07-18T13:31:57.757Z,23.02
2023-07-18T13:37:00.693Z,22.74
2023-07-18T13:42:04.101Z,22.85
2023-07-18T13:47:07.468Z,23.40
2023-07-18T13:52:10.519Z,24.54
2023-07-18T13:57:13.261Z,25.21
2023-07-18T14:02:16.145Z,24.81
2023-07-18T14:07:19.506Z,24.22
2023-07-18T14:12:22.236Z,23.65
2023-07-18T14:17:26.119Z,24.49
2023-07-18T14:22:30.669Z,24.66
2023-07-18T14:27:33.776Z,24.29
2023-07-18T14:32:39.696Z,23.92
2023-07-18T14:37:42.567Z,23.88
2023-07-18T14:42:45.937Z,23.82
2023-07-18T14:47:48.970Z,23.32
2023-07-18T14:52:51.716Z,22.71
2023-07-18T14:57:54.585Z,22.28
2023-07-18T15:02:57.408Z,22.12
2023-07-18T15:08:00.346Z,22.13
2023-07-18T15:13:03.863Z,22.50
2023-07-18T15:18:07.385Z,22.75
2023-07-18T15:23:10.287Z,22.78
2023-07-18T15:28:16.308Z,22.58
2023-07-18T15:33:25.528Z,22.29
2023-07-18T15:38:29.800Z,22.05
2023-07-18T15:43:33.387Z,21.81
2023-07-18T15:48:37.433Z,21.67
2023-07-18T15:53:40.245Z,21.45
2023-07-18T15:58:43.002Z,21.16
2023-07-18T16:03:45.854Z,20.88
2023-07-18T16:08:49.042Z,20.69
2023-07-18T16:13:53.491Z,20.64
2023-07-18T16:18:59.975Z,20.71
2023-07-18T16:24:03.125Z,20.77
2023-07-18T16:29:05.937Z,20.77
2023-07-18T16:34:08.729Z,20.73
2023-07-18T16:39:11.495Z,20.64
2023-07-18T16:44:14.840Z,20.52
2023-07-18T16:49:17.678Z,20.41
2023-07-18T16:54:20.731Z,20.39
2023-07-18T16:59:23.576Z,20.54
2023-07-18T17:04:26.514Z,20.94
2023-07-18T17:09:29.399Z,23.32
2023-07-18T17:14:32.151Z,27.05
2023-07-18T17:19:39.477Z,29.65
2023-07-18T17:24:52.565Z,29.45
2023-07-18T17:29:55.384Z,29.18
2023-07-18T17:34:58.237Z,28.42
2023-07-18T17:40:02.146Z,29.17
2023-07-18T17:45:06.357Z,28.23
2023-07-18T17:50:09.518Z,28.51
2023-07-18T17:55:12.809Z,28.17
2023-07-18T18:00:16.035Z,26.98
2023-07-18T18:05:46.778Z,25.60
2023-07-18T18:10:49.955Z,24.48
2023-07-18T18:16:06.497Z,23.87
2023-07-18T18:21:12.214Z,23.19
2023-07-18T18:26:15.109Z,22.61
2023-07-18T18:31:18.099Z,22.01
2023-07-18T18:36:24.134Z,21.39
2023-07-18T18:41:27.372Z,20.85
2023-07-18T18:46:30.181Z,20.37
2023-07-18T18:51:33.402Z,19.87
2023-07-18T18:56:37.769Z,19.42
2023-07-18T19:01:40.639Z,19.00
2023-07-18T19:06:44.462Z,18.58
2023-07-18T19:11:47.198Z,18.20
2023-07-18T19:16:50.062Z,17.86
2023-07-18T19:21:52.854Z,17.52
2023-07-18T19:26:58.083Z,17.20
2023-07-18T19:32:01.585Z,16.87
2023-07-18T19:37:05.675Z,16.57
2023-07-18T19:42:08.563Z,16.28
2023-07-18T19:47:11.615Z,15.99
2023-07-18T19:52:15.243Z,15.73
2023-07-18T19:57:18.205Z,15.48
2023-07-18T20:02:21.221Z,15.29
2023-07-18T20:07:24.106Z,15.16
2023-07-18T20:12:26.846Z,15.04
2023-07-18T20:17:29.669Z,14.91
2023-07-18T20:22:32.447Z,14.76
2023-07-18T20:27:38.747Z,14.61
2023-07-18T20:32:41.964Z,14.48
2023-07-18T20:37:47.790Z,14.39
2023-07-18T20:42:52.103Z,14.38
2023-07-18T20:47:55.086Z,14.38
2023-07-18T20:52:57.968Z,14.39
2023-07-18T20:58:01.053Z,14.36
2023-07-18T21:03:05.217Z,14.31
2023-07-18T21:08:08.200Z,14.27
2023-07-18T21:13:11.141Z,14.20
2023-07-18T21:18:14.021Z,14.08
2023-07-18T21:23:16.901Z,13.93
2023-07-18T21:28:19.696Z,13.82
2023-07-18T21:33:22.834Z,13.73
2023-07-18T21:38:26.109Z,13.63
2023-07-18T21:43:29.034Z,13.53
2023-07-18T21:48:32.034Z,13.46
2023-07-18T21:53:35.515Z,13.41
2023-07-18T21:58:38.386Z,13.35
2023-07-18T22:03:41.543Z,13.27
2023-07-18T22:08:44.433Z,13.15
2023-07-18T22:13:48.647Z,13.07
2023-07-18T22:18:51.589Z,13.00
2023-07-18T22:23:54.841Z,12.91
2023-07-18T22:28:57.963Z,12.83
2023-07-18T22:34:00.668Z,12.73
2023-07-18T22:39:04.730Z,12.68
2023-07-18T22:44:07.599Z,12.61
2023-07-18T22:49:10.787Z,12.54
2023-07-18T22:54:13.537Z,12.45
2023-07-18T22:59:16.267Z,12.34
2023-07-18T23:04:18.992Z,12.23
2023-07-18T23:09:21.859Z,12.10
2023-07-18T23:14:25.100Z,12.02
2023-07-18T23:19:27.866Z,11.94
2023-07-18T23:24:31.081Z,11.86
2023-07-18T23:29:33.858Z,11.76
2023-07-18T23:34:36.954Z,11.67
2023-07-18T23:39:39.688Z,11.66
2023-07-18T23:44:43.255Z,11.65
2023-07-18T23:49:46.037Z,11.61
2023-07-18T23:54:49.175Z,11.59
2023-07-18T23:59:51.919Z,11.55
